sensor_id;sensor_type;location;lat;lon;timestamp;P1;durP1;ratioP1;P2;durP2;ratioP2
10637;SDS011;47007;49.252;8.904;2023-03-23T00:00:04;0.50;;;0.50;;
10637;SDS011;47007;49.252;8.904;2023-03-23T00:00:51;0.38;;;0.38;;
10637;SDS011;47007;49.252;8.904;2023-03-23T00:01:31;0.60;;;0.40;;
10637;SDS011;47007;49.252;8.904;2023-03-23T00:02:17;0.43;;;0.43;;
10637;SDS011;47007;49.252;8.904;2023-03-23T00:02:57;0.60;;;0.40;;
10637;SDS011;47007;49.252;8.904;2023-03-23T00:03:38;1.00;;;0.30;;
10637;SDS011;47007;49.252;8.904;2023-03-23T00:04:20;0.60;;;0.40;;
10637;SDS011;47007;49.252;8.904;2023-03-23T00:05:02;0.80;;;0.30;;
10637;SDS011;47007;49.252;8.904;2023-03-23T00:05:44;1.35;;;0.30;;
10637;SDS011;47007;49.252;8.904;2023-03-23T00:06:30;0.63;;;0.40;;
10637;SDS011;47007;49.252;8.904;2023-03-23T00:07:13;2.28;;;1.30;;
10637;SDS011;47007;49.252;8.904;2023-03-23T00:08:01;0.82;;;0.70;;
10637;SDS011;47007;49.252;8.904;2023-03-23T00:08:43;1.27;;;0.63;;
10637;SDS011;47007;49.252;8.904;2023-03-23T00:09:26;1.02;;;1.00;;
10637;SDS011;47007;49.252;8.904;2023-03-23T00:10:07;1.42;;;0.70;;
10637;SDS011;47007;49.252;8.904;2023-03-23T00:10:49;1.00;;;0.70;;
10637;SDS011;47007;49.252;8.904;2023-03-23T00:11:32;0.80;;;0.50;;
10637;SDS011;47007;49.252;8.904;2023-03-23T00:12:13;0.73;;;0.40;;
10637;SDS011;47007;49.252;8.904;2023-03-23T00:12:55;2.35;;;0.50;;
10637;SDS011;47007;49.252;8.904;2023-03-23T00:13:37;0.50;;;0.30;;
10637;SDS011;47007;49.252;8.904;2023-03-23T00:14:18;0.40;;;0.40;;
10637;SDS011;47007;49.252;8.904;2023-03-23T00:15:04;0.52;;;0.47;;
10637;SDS011;47007;49.252;8.904;2023-03-23T00:15:46;1.00;;;0.30;;
10637;SDS011;47007;49.252;8.904;2023-03-23T00:16:30;1.02;;;0.40;;
10637;SDS011;47007;49.252;8.904;2023-03-23T00:17:12;0.73;;;0.50;;
10637;SDS011;47007;49.252;8.904;2023-03-23T00:17:54;0.50;;;0.30;;
10637;SDS011;47007;49.252;8.904;2023-03-23T00:18:45;0.32;;;0.30;;
10637;SDS011;47007;49.252;8.904;2023-03-23T00:19:27;0.65;;;0.40;;
10637;SDS011;47007;49.252;8.904;2023-03-23T00:20:08;0.85;;;0.43;;
10637;SDS011;47007;49.252;8.904;2023-03-23T00:20:53;0.45;;;0.32;;
10637;SDS011;47007;49.252;8.904;2023-03-23T00:21:36;0.45;;;0.30;;
10637;SDS011;47007;49.252;8.904;2023-03-23T00:22:19;0.57;;;0.40;;
10637;SDS011;47007;49.252;8.904;2023-03-23T00:23:01;0.57;;;0.30;;
10637;SDS011;47007;49.252;8.904;2023-03-23T00:23:42;1.13;;;0.30;;
10637;SDS011;47007;49.252;8.904;2023-03-23T00:24:25;0.50;;;0.40;;
10637;SDS011;47007;49.252;8.904;2023-03-23T00:25:06;0.63;;;0.57;;
10637;SDS011;47007;49.252;8.904;2023-03-23T00:25:52;0.60;;;0.55;;
10637;SDS011;47007;49.252;8.904;2023-03-23T00:26:34;1.85;;;0.50;;
10637;SDS011;47007;49.252;8.904;2023-03-23T00:27:16;0.40;;;0.30;;
10637;SDS011;47007;49.252;8.904;2023-03-23T00:27:57;0.40;;;0.35;;
10637;SDS011;47007;49.252;8.904;2023-03-23T00:28:38;0.50;;;0.35;;
10637;SDS011;47007;49.252;8.904;2023-03-23T00:29:20;0.30;;;0.30;;
10637;SDS011;47007;49.252;8.904;2023-03-23T00:30:05;0.55;;;0.30;;
10637;SDS011;47007;49.252;8.904;2023-03-23T00:30:46;0.88;;;0.40;;
10637;SDS011;47007;49.252;8.904;2023-03-23T00:31:27;0.30;;;0.30;;
10637;SDS011;47007;49.252;8.904;2023-03-23T00:32:12;1.52;;;0.30;;
10637;SDS011;47007;49.252;8.904;2023-03-23T00:32:54;3.13;;;0.30;;
10637;SDS011;47007;49.252;8.904;2023-03-23T00:33:35;0.93;;;0.20;;
10637;SDS011;47007;49.252;8.904;2023-03-23T00:34:24;0.73;;;0.43;;
10637;SDS011;47007;49.252;8.904;2023-03-23T00:35:05;0.40;;;0.20;;
10637;SDS011;47007;49.252;8.904;2023-03-23T00:35:46;0.77;;;0.30;;
10637;SDS011;47007;49.252;8.904;2023-03-23T00:36:27;0.47;;;0.35;;
10637;SDS011;47007;49.252;8.904;2023-03-23T00:37:09;0.20;;;0.20;;
10637;SDS011;47007;49.252;8.904;2023-03-23T00:37:50;0.52;;;0.32;;
10637;SDS011;47007;49.252;8.904;2023-03-23T00:38:30;0.85;;;0.40;;
10637;SDS011;47007;49.252;8.904;2023-03-23T00:39:12;0.40;;;0.25;;
10637;SDS011;47007;49.252;8.904;2023-03-23T00:39:54;0.75;;;0.30;;
10637;SDS011;47007;49.252;8.904;2023-03-23T00:40:37;0.30;;;0.20;;
10637;SDS011;47007;49.252;8.904;2023-03-23T00:41:18;0.82;;;0.38;;
10637;SDS011;47007;49.252;8.904;2023-03-23T00:41:58;0.55;;;0.35;;
10637;SDS011;47007;49.252;8.904;2023-03-23T00:42:42;0.30;;;0.30;;
10637;SDS011;47007;49.252;8.904;2023-03-23T00:43:24;0.60;;;0.30;;
10637;SDS011;47007;49.252;8.904;2023-03-23T00:44:04;0.40;;;0.40;;
10637;SDS011;47007;49.252;8.904;2023-03-23T00:44:45;0.60;;;0.40;;
10637;SDS011;47007;49.252;8.904;2023-03-23T00:45:26;0.43;;;0.30;;
10637;SDS011;47007;49.252;8.904;2023-03-23T00:46:07;0.45;;;0.40;;
10637;SDS011;47007;49.252;8.904;2023-03-23T00:46:49;0.90;;;0.40;;
10637;SDS011;47007;49.252;8.904;2023-03-23T00:47:30;0.80;;;0.40;;
10637;SDS011;47007;49.252;8.904;2023-03-23T00:48:11;0.68;;;0.30;;
10637;SDS011;47007;49.252;8.904;2023-03-23T00:48:55;0.30;;;0.30;;
10637;SDS011;47007;49.252;8.904;2023-03-23T00:49:37;2.58;;;0.50;;
10637;SDS011;47007;49.252;8.904;2023-03-23T00:50:18;0.70;;;0.30;;
10637;SDS011;47007;49.252;8.904;2023-03-23T00:50:59;0.35;;;0.30;;
10637;SDS011;47007;49.252;8.904;2023-03-23T00:51:41;0.40;;;0.40;;
10637;SDS011;47007;49.252;8.904;2023-03-23T00:52:23;0.60;;;0.30;;
10637;SDS011;47007;49.252;8.904;2023-03-23T00:53:04;0.30;;;0.30;;
10637;SDS011;47007;49.252;8.904;2023-03-23T00:53:45;0.75;;;0.30;;
10637;SDS011;47007;49.252;8.904;2023-03-23T00:54:26;1.65;;;0.40;;
10637;SDS011;47007;49.252;8.904;2023-03-23T00:55:07;0.50;;;0.30;;
10637;SDS011;47007;49.252;8.904;2023-03-23T00:55:48;1.05;;;0.30;;
10637;SDS011;47007;49.252;8.904;2023-03-23T00:56:29;0.88;;;0.50;;
10637;SDS011;47007;49.252;8.904;2023-03-23T00:57:11;1.02;;;0.30;;
10637;SDS011;47007;49.252;8.904;2023-03-23T00:57:51;0.40;;;0.40;;
10637;SDS011;47007;49.252;8.904;2023-03-23T00:58:32;0.45;;;0.40;;
10637;SDS011;47007;49.252;8.904;2023-03-23T00:59:13;0.50;;;0.40;;
10637;SDS011;47007;49.252;8.904;2023-03-23T00:59:54;0.57;;;0.50;;
10637;SDS011;47007;49.252;8.904;2023-03-23T01:00:35;0.80;;;0.60;;
10637;SDS011;47007;49.252;8.904;2023-03-23T01:01:16;0.90;;;0.57;;
10637;SDS011;47007;49.252;8.904;2023-03-23T01:01:57;0.60;;;0.60;;
10637;SDS011;47007;49.252;8.904;2023-03-23T01:02:37;1.48;;;0.50;;
10637;SDS011;47007;49.252;8.904;2023-03-23T01:03:20;0.77;;;0.47;;
10637;SDS011;47007;49.252;8.904;2023-03-23T01:04:02;0.73;;;0.50;;
10637;SDS011;47007;49.252;8.904;2023-03-23T01:04:44;0.50;;;0.50;;
10637;SDS011;47007;49.252;8.904;2023-03-23T01:05:25;0.60;;;0.50;;
10637;SDS011;47007;49.252;8.904;2023-03-23T01:06:12;0.60;;;0.57;;
10637;SDS011;47007;49.252;8.904;2023-03-23T01:06:58;0.73;;;0.50;;
10637;SDS011;47007;49.252;8.904;2023-03-23T01:07:41;0.52;;;0.40;;
10637;SDS011;47007;49.252;8.904;2023-03-23T01:08:24;0.40;;;0.40;;
10637;SDS011;47007;49.252;8.904;2023-03-23T01:09:05;0.75;;;0.75;;
10637;SDS011;47007;49.252;8.904;2023-03-23T01:09:48;0.60;;;0.50;;
10637;SDS011;47007;49.252;8.904;2023-03-23T01:10:29;0.60;;;0.50;;
10637;SDS011;47007;49.252;8.904;2023-03-23T01:11:14;0.60;;;0.50;;
10637;SDS011;47007;49.252;8.904;2023-03-23T01:11:56;0.50;;;0.45;;
10637;SDS011;47007;49.252;8.904;2023-03-23T01:12:36;0.68;;;0.60;;
10637;SDS011;47007;49.252;8.904;2023-03-23T01:13:17;0.65;;;0.65;;
10637;SDS011;47007;49.252;8.904;2023-03-23T01:13:58;1.17;;;0.40;;
10637;SDS011;47007;49.252;8.904;2023-03-23T01:14:39;0.40;;;0.40;;
10637;SDS011;47007;49.252;8.904;2023-03-23T01:15:21;0.80;;;0.52;;
10637;SDS011;47007;49.252;8.904;2023-03-23T01:16:02;0.65;;;0.65;;
10637;SDS011;47007;49.252;8.904;2023-03-23T01:16:43;0.65;;;0.40;;
10637;SDS011;47007;49.252;8.904;2023-03-23T01:17:25;0.73;;;0.60;;
10637;SDS011;47007;49.252;8.904;2023-03-23T01:18:06;0.60;;;0.57;;
10637;SDS011;47007;49.252;8.904;2023-03-23T01:18:46;0.63;;;0.63;;
10637;SDS011;47007;49.252;8.904;2023-03-23T01:19:27;0.60;;;0.60;;
10637;SDS011;47007;49.252;8.904;2023-03-23T01:20:08;0.73;;;0.43;;
10637;SDS011;47007;49.252;8.904;2023-03-23T01:20:50;0.65;;;0.50;;
10637;SDS011;47007;49.252;8.904;2023-03-23T01:21:31;1.65;;;0.40;;
10637;SDS011;47007;49.252;8.904;2023-03-23T01:22:12;0.80;;;0.40;;
10637;SDS011;47007;49.252;8.904;2023-03-23T01:22:53;1.10;;;0.40;;
10637;SDS011;47007;49.252;8.904;2023-03-23T01:23:40;0.40;;;0.30;;
10637;SDS011;47007;49.252;8.904;2023-03-23T01:24:21;0.35;;;0.35;;
10637;SDS011;47007;49.252;8.904;2023-03-23T01:25:01;0.70;;;0.70;;
10637;SDS011;47007;49.252;8.904;2023-03-23T01:25:42;0.40;;;0.40;;
10637;SDS011;47007;49.252;8.904;2023-03-23T01:26:24;0.60;;;0.40;;
10637;SDS011;47007;49.252;8.904;2023-03-23T01:27:06;0.30;;;0.30;;
10637;SDS011;47007;49.252;8.904;2023-03-23T01:27:47;0.40;;;0.30;;
10637;SDS011;47007;49.252;8.904;2023-03-23T01:28:27;0.40;;;0.32;;
10637;SDS011;47007;49.252;8.904;2023-03-23T01:29:08;0.30;;;0.30;;
10637;SDS011;47007;49.252;8.904;2023-03-23T01:29:48;1.38;;;0.77;;
10637;SDS011;47007;49.252;8.904;2023-03-23T01:30:29;0.30;;;0.30;;
10637;SDS011;47007;49.252;8.904;2023-03-23T01:31:12;0.40;;;0.40;;
10637;SDS011;47007;49.252;8.904;2023-03-23T01:31:55;1.13;;;0.40;;
10637;SDS011;47007;49.252;8.904;2023-03-23T01:32:36;0.30;;;0.30;;
10637;SDS011;47007;49.252;8.904;2023-03-23T01:33:17;1.80;;;0.30;;
10637;SDS011;47007;49.252;8.904;2023-03-23T01:33:57;0.52;;;0.30;;
10637;SDS011;47007;49.252;8.904;2023-03-23T01:34:38;0.32;;;0.22;;
10637;SDS011;47007;49.252;8.904;2023-03-23T01:35:19;0.52;;;0.30;;
10637;SDS011;47007;49.252;8.904;2023-03-23T01:36:04;0.50;;;0.40;;
10637;SDS011;47007;49.252;8.904;2023-03-23T01:36:47;0.40;;;0.30;;
10637;SDS011;47007;49.252;8.904;2023-03-23T01:37:27;0.25;;;0.25;;
10637;SDS011;47007;49.252;8.904;2023-03-23T01:38:10;0.30;;;0.30;;
10637;SDS011;47007;49.252;8.904;2023-03-23T01:38:51;0.82;;;0.32;;
10637;SDS011;47007;49.252;8.904;2023-03-23T01:39:31;0.28;;;0.20;;
10637;SDS011;47007;49.252;8.904;2023-03-23T01:40:12;0.50;;;0.40;;
10637;SDS011;47007;49.252;8.904;2023-03-23T01:40:53;0.25;;;0.20;;
10637;SDS011;47007;49.252;8.904;2023-03-23T01:41:35;0.90;;;0.40;;
10637;SDS011;47007;49.252;8.904;2023-03-23T01:42:25;0.40;;;0.30;;
10637;SDS011;47007;49.252;8.904;2023-03-23T01:43:11;0.40;;;0.40;;
10637;SDS011;47007;49.252;8.904;2023-03-23T01:44:59;0.30;;;0.30;;
10637;SDS011;47007;49.252;8.904;2023-03-23T01:45:31;0.30;;;0.30;;
10637;SDS011;47007;49.252;8.904;2023-03-23T01:46:15;0.30;;;0.30;;
10637;SDS011;47007;49.252;8.904;2023-03-23T01:46:56;0.57;;;0.30;;
10637;SDS011;47007;49.252;8.904;2023-03-23T01:47:37;0.55;;;0.35;;
10637;SDS011;47007;49.252;8.904;2023-03-23T01:48:21;0.32;;;0.30;;
10637;SDS011;47007;49.252;8.904;2023-03-23T01:49:11;0.55;;;0.30;;
10637;SDS011;47007;49.252;8.904;2023-03-23T01:49:54;1.30;;;0.50;;
10637;SDS011;47007;49.252;8.904;2023-03-23T01:50:38;0.30;;;0.30;;
10637;SDS011;47007;49.252;8.904;2023-03-23T01:51:33;0.40;;;0.40;;
10637;SDS011;47007;49.252;8.904;2023-03-23T01:52:22;1.05;;;0.50;;
10637;SDS011;47007;49.252;8.904;2023-03-23T01:53:10;0.68;;;0.30;;
10637;SDS011;47007;49.252;8.904;2023-03-23T01:53:56;0.70;;;0.30;;
10637;SDS011;47007;49.252;8.904;2023-03-23T01:54:39;0.47;;;0.40;;
10637;SDS011;47007;49.252;8.904;2023-03-23T01:55:21;0.65;;;0.47;;
10637;SDS011;47007;49.252;8.904;2023-03-23T01:56:05;0.82;;;0.30;;
10637;SDS011;47007;49.252;8.904;2023-03-23T01:56:52;1.13;;;0.32;;
10637;SDS011;47007;49.252;8.904;2023-03-23T01:57:37;0.50;;;0.40;;
10637;SDS011;47007;49.252;8.904;2023-03-23T01:58:21;0.40;;;0.40;;
10637;SDS011;47007;49.252;8.904;2023-03-23T01:59:08;0.40;;;0.40;;
10637;SDS011;47007;49.252;8.904;2023-03-23T01:59:52;0.55;;;0.30;;
10637;SDS011;47007;49.252;8.904;2023-03-23T02:00:38;1.02;;;0.30;;
10637;SDS011;47007;49.252;8.904;2023-03-23T02:01:21;0.60;;;0.30;;
10637;SDS011;47007;49.252;8.904;2023-03-23T02:02:05;0.47;;;0.30;;
10637;SDS011;47007;49.252;8.904;2023-03-23T02:02:46;0.57;;;0.32;;
10637;SDS011;47007;49.252;8.904;2023-03-23T02:03:31;1.00;;;0.40;;
10637;SDS011;47007;49.252;8.904;2023-03-23T02:04:13;0.63;;;0.50;;
10637;SDS011;47007;49.252;8.904;2023-03-23T02:04:58;0.80;;;0.60;;
10637;SDS011;47007;49.252;8.904;2023-03-23T02:05:44;0.52;;;0.40;;
10637;SDS011;47007;49.252;8.904;2023-03-23T02:06:38;0.60;;;0.40;;
10637;SDS011;47007;49.252;8.904;2023-03-23T02:07:31;0.57;;;0.45;;
10637;SDS011;47007;49.252;8.904;2023-03-23T02:08:14;0.90;;;0.50;;
10637;SDS011;47007;49.252;8.904;2023-03-23T02:08:56;0.75;;;0.50;;
10637;SDS011;47007;49.252;8.904;2023-03-23T02:09:38;0.35;;;0.35;;
10637;SDS011;47007;49.252;8.904;2023-03-23T02:10:19;0.85;;;0.40;;
10637;SDS011;47007;49.252;8.904;2023-03-23T02:11:00;0.43;;;0.43;;
10637;SDS011;47007;49.252;8.904;2023-03-23T02:11:42;0.52;;;0.40;;
10637;SDS011;47007;49.252;8.904;2023-03-23T02:12:25;0.65;;;0.50;;
10637;SDS011;47007;49.252;8.904;2023-03-23T02:13:08;0.40;;;0.40;;
10637;SDS011;47007;49.252;8.904;2023-03-23T02:13:50;0.88;;;0.57;;
10637;SDS011;47007;49.252;8.904;2023-03-23T02:14:31;1.00;;;0.65;;
10637;SDS011;47007;49.252;8.904;2023-03-23T02:15:12;1.13;;;0.32;;
10637;SDS011;47007;49.252;8.904;2023-03-23T02:18:13;1.45;;;0.52;;
10637;SDS011;47007;49.252;8.904;2023-03-23T02:19:10;1.80;;;0.50;;
10637;SDS011;47007;49.252;8.904;2023-03-23T02:27:15;0.40;;;0.40;;
10637;SDS011;47007;49.252;8.904;2023-03-23T02:30:13;0.55;;;0.55;;
10637;SDS011;47007;49.252;8.904;2023-03-23T02:32:21;1.70;;;0.60;;
10637;SDS011;47007;49.252;8.904;2023-03-23T02:36:29;0.60;;;0.52;;
10637;SDS011;47007;49.252;8.904;2023-03-23T02:37:21;0.82;;;0.40;;
10637;SDS011;47007;49.252;8.904;2023-03-23T02:38:10;0.77;;;0.50;;
10637;SDS011;47007;49.252;8.904;2023-03-23T02:39:08;1.27;;;0.40;;
10637;SDS011;47007;49.252;8.904;2023-03-23T02:39:55;0.63;;;0.50;;
10637;SDS011;47007;49.252;8.904;2023-03-23T02:40:40;0.40;;;0.40;;
10637;SDS011;47007;49.252;8.904;2023-03-23T02:41:25;0.52;;;0.40;;
10637;SDS011;47007;49.252;8.904;2023-03-23T02:42:12;0.90;;;0.40;;
10637;SDS011;47007;49.252;8.904;2023-03-23T02:42:57;0.40;;;0.40;;
10637;SDS011;47007;49.252;8.904;2023-03-23T02:43:40;0.65;;;0.32;;
10637;SDS011;47007;49.252;8.904;2023-03-23T02:44:25;0.65;;;0.55;;
10637;SDS011;47007;49.252;8.904;2023-03-23T02:45:11;0.60;;;0.50;;
10637;SDS011;47007;49.252;8.904;2023-03-23T02:45:54;0.63;;;0.47;;
10637;SDS011;47007;49.252;8.904;2023-03-23T02:46:36;0.43;;;0.40;;
10637;SDS011;47007;49.252;8.904;2023-03-23T02:47:21;1.02;;;0.50;;
10637;SDS011;47007;49.252;8.904;2023-03-23T02:48:05;0.57;;;0.47;;
10637;SDS011;47007;49.252;8.904;2023-03-23T02:48:48;0.50;;;0.50;;
10637;SDS011;47007;49.252;8.904;2023-03-23T02:49:32;0.73;;;0.60;;
10637;SDS011;47007;49.252;8.904;2023-03-23T02:50:16;0.60;;;0.47;;
10637;SDS011;47007;49.252;8.904;2023-03-23T02:51:00;0.40;;;0.40;;
10637;SDS011;47007;49.252;8.904;2023-03-23T02:51:43;1.08;;;0.65;;
10637;SDS011;47007;49.252;8.904;2023-03-23T02:52:27;1.13;;;0.40;;
10637;SDS011;47007;49.252;8.904;2023-03-23T02:53:12;0.60;;;0.47;;
10637;SDS011;47007;49.252;8.904;2023-03-23T02:53:55;0.50;;;0.43;;
10637;SDS011;47007;49.252;8.904;2023-03-23T02:54:38;0.50;;;0.40;;
10637;SDS011;47007;49.252;8.904;2023-03-23T02:55:20;2.28;;;0.50;;
10637;SDS011;47007;49.252;8.904;2023-03-23T02:56:05;0.38;;;0.38;;
10637;SDS011;47007;49.252;8.904;2023-03-23T02:56:48;0.40;;;0.40;;
10637;SDS011;47007;49.252;8.904;2023-03-23T02:57:37;1.85;;;0.52;;
10637;SDS011;47007;49.252;8.904;2023-03-23T02:58:19;1.58;;;0.50;;
10637;SDS011;47007;49.252;8.904;2023-03-23T02:59:01;0.85;;;0.50;;
10637;SDS011;47007;49.252;8.904;2023-03-23T02:59:43;1.05;;;0.50;;
10637;SDS011;47007;49.252;8.904;2023-03-23T03:00:23;0.63;;;0.50;;
10637;SDS011;47007;49.252;8.904;2023-03-23T03:02:14;0.50;;;0.50;;
10637;SDS011;47007;49.252;8.904;2023-03-23T03:02:59;0.40;;;0.40;;
10637;SDS011;47007;49.252;8.904;2023-03-23T03:03:40;0.70;;;0.55;;
10637;SDS011;47007;49.252;8.904;2023-03-23T03:04:21;0.60;;;0.60;;
10637;SDS011;47007;49.252;8.904;2023-03-23T03:05:53;0.68;;;0.50;;
10637;SDS011;47007;49.252;8.904;2023-03-23T03:06:40;0.93;;;0.50;;
10637;SDS011;47007;49.252;8.904;2023-03-23T03:08:45;1.05;;;0.40;;
10637;SDS011;47007;49.252;8.904;2023-03-23T03:10:25;1.60;;;0.68;;
10637;SDS011;47007;49.252;8.904;2023-03-23T03:11:14;0.50;;;0.50;;
10637;SDS011;47007;49.252;8.904;2023-03-23T03:11:58;0.55;;;0.50;;
10637;SDS011;47007;49.252;8.904;2023-03-23T03:12:51;0.40;;;0.40;;
10637;SDS011;47007;49.252;8.904;2023-03-23T03:14:36;0.60;;;0.40;;
10637;SDS011;47007;49.252;8.904;2023-03-23T03:15:27;0.50;;;0.50;;
10637;SDS011;47007;49.252;8.904;2023-03-23T03:16:33;0.47;;;0.47;;
10637;SDS011;47007;49.252;8.904;2023-03-23T03:17:25;0.80;;;0.68;;
10637;SDS011;47007;49.252;8.904;2023-03-23T03:18:15;0.60;;;0.60;;
10637;SDS011;47007;49.252;8.904;2023-03-23T03:19:56;0.63;;;0.45;;
10637;SDS011;47007;49.252;8.904;2023-03-23T03:20:46;0.98;;;0.43;;
10637;SDS011;47007;49.252;8.904;2023-03-23T03:21:31;0.80;;;0.45;;
10637;SDS011;47007;49.252;8.904;2023-03-23T03:22:17;1.58;;;0.60;;
10637;SDS011;47007;49.252;8.904;2023-03-23T03:23:01;0.55;;;0.50;;
10637;SDS011;47007;49.252;8.904;2023-03-23T03:23:44;0.80;;;0.50;;
10637;SDS011;47007;49.252;8.904;2023-03-23T03:24:27;0.75;;;0.63;;
10637;SDS011;47007;49.252;8.904;2023-03-23T03:25:10;1.55;;;0.82;;
10637;SDS011;47007;49.252;8.904;2023-03-23T03:25:56;0.93;;;0.80;;
10637;SDS011;47007;49.252;8.904;2023-03-23T03:26:51;2.67;;;0.93;;
10637;SDS011;47007;49.252;8.904;2023-03-23T03:27:54;0.50;;;0.47;;
10637;SDS011;47007;49.252;8.904;2023-03-23T03:28:49;0.70;;;0.55;;
10637;SDS011;47007;49.252;8.904;2023-03-23T03:29:34;0.73;;;0.73;;
10637;SDS011;47007;49.252;8.904;2023-03-23T03:30:22;0.80;;;0.70;;
10637;SDS011;47007;49.252;8.904;2023-03-23T03:31:11;0.70;;;0.70;;
10637;SDS011;47007;49.252;8.904;2023-03-23T03:31:52;0.50;;;0.50;;
10637;SDS011;47007;49.252;8.904;2023-03-23T03:32:44;0.55;;;0.45;;
10637;SDS011;47007;49.252;8.904;2023-03-23T03:33:31;0.73;;;0.60;;
10637;SDS011;47007;49.252;8.904;2023-03-23T03:34:14;1.15;;;0.70;;
10637;SDS011;47007;49.252;8.904;2023-03-23T03:35:02;0.60;;;0.60;;
10637;SDS011;47007;49.252;8.904;2023-03-23T03:35:44;0.50;;;0.50;;
10637;SDS011;47007;49.252;8.904;2023-03-23T03:36:26;0.57;;;0.57;;
10637;SDS011;47007;49.252;8.904;2023-03-23T03:37:15;0.52;;;0.50;;
10637;SDS011;47007;49.252;8.904;2023-03-23T03:38:04;1.58;;;0.68;;
10637;SDS011;47007;49.252;8.904;2023-03-23T03:38:48;1.15;;;0.50;;
10637;SDS011;47007;49.252;8.904;2023-03-23T03:39:31;1.10;;;0.57;;
10637;SDS011;47007;49.252;8.904;2023-03-23T03:40:18;0.40;;;0.40;;
10637;SDS011;47007;49.252;8.904;2023-03-23T03:41:01;0.70;;;0.50;;
10637;SDS011;47007;49.252;8.904;2023-03-23T03:41:41;0.90;;;0.80;;
10637;SDS011;47007;49.252;8.904;2023-03-23T03:42:22;1.38;;;0.80;;
10637;SDS011;47007;49.252;8.904;2023-03-23T03:43:05;1.33;;;0.70;;
10637;SDS011;47007;49.252;8.904;2023-03-23T03:43:47;1.48;;;0.65;;
10637;SDS011;47007;49.252;8.904;2023-03-23T03:44:28;1.00;;;0.70;;
10637;SDS011;47007;49.252;8.904;2023-03-23T03:45:11;1.95;;;0.60;;
10637;SDS011;47007;49.252;8.904;2023-03-23T03:45:54;2.35;;;0.80;;
10637;SDS011;47007;49.252;8.904;2023-03-23T03:46:35;0.60;;;0.60;;
10637;SDS011;47007;49.252;8.904;2023-03-23T03:47:17;1.23;;;0.70;;
10637;SDS011;47007;49.252;8.904;2023-03-23T03:47:58;0.57;;;0.57;;
10637;SDS011;47007;49.252;8.904;2023-03-23T03:48:38;0.60;;;0.60;;
10637;SDS011;47007;49.252;8.904;2023-03-23T03:49:19;1.00;;;0.70;;
10637;SDS011;47007;49.252;8.904;2023-03-23T03:50:00;0.47;;;0.47;;
10637;SDS011;47007;49.252;8.904;2023-03-23T03:50:40;1.10;;;0.70;;
10637;SDS011;47007;49.252;8.904;2023-03-23T03:51:22;0.60;;;0.45;;
10637;SDS011;47007;49.252;8.904;2023-03-23T03:52:05;1.52;;;0.90;;
10637;SDS011;47007;49.252;8.904;2023-03-23T03:52:55;1.02;;;0.70;;
10637;SDS011;47007;49.252;8.904;2023-03-23T03:53:37;1.48;;;0.73;;
10637;SDS011;47007;49.252;8.904;2023-03-23T03:54:18;1.55;;;0.90;;
10637;SDS011;47007;49.252;8.904;2023-03-23T03:54:58;0.70;;;0.68;;
10637;SDS011;47007;49.252;8.904;2023-03-23T03:55:40;0.80;;;0.70;;
10637;SDS011;47007;49.252;8.904;2023-03-23T03:56:28;1.15;;;0.70;;
10637;SDS011;47007;49.252;8.904;2023-03-23T03:57:31;0.65;;;0.65;;
10637;SDS011;47007;49.252;8.904;2023-03-23T03:58:17;0.93;;;0.60;;
10637;SDS011;47007;49.252;8.904;2023-03-23T03:59:18;0.65;;;0.65;;
10637;SDS011;47007;49.252;8.904;2023-03-23T04:00:18;0.60;;;0.50;;
10637;SDS011;47007;49.252;8.904;2023-03-23T04:01:00;1.42;;;0.65;;
10637;SDS011;47007;49.252;8.904;2023-03-23T04:01:46;1.48;;;0.60;;
10637;SDS011;47007;49.252;8.904;2023-03-23T04:02:27;1.58;;;0.80;;
10637;SDS011;47007;49.252;8.904;2023-03-23T04:03:08;1.30;;;0.77;;
10637;SDS011;47007;49.252;8.904;2023-03-23T04:04:18;0.60;;;0.60;;
10637;SDS011;47007;49.252;8.904;2023-03-23T04:04:59;0.60;;;0.60;;
10637;SDS011;47007;49.252;8.904;2023-03-23T04:05:46;0.60;;;0.60;;
10637;SDS011;47007;49.252;8.904;2023-03-23T04:06:27;1.45;;;0.50;;
10637;SDS011;47007;49.252;8.904;2023-03-23T04:07:09;0.82;;;0.60;;
10637;SDS011;47007;49.252;8.904;2023-03-23T04:07:54;0.60;;;0.60;;
10637;SDS011;47007;49.252;8.904;2023-03-23T04:08:41;0.57;;;0.55;;
10637;SDS011;47007;49.252;8.904;2023-03-23T04:09:23;1.40;;;0.70;;
10637;SDS011;47007;49.252;8.904;2023-03-23T04:10:05;0.70;;;0.60;;
10637;SDS011;47007;49.252;8.904;2023-03-23T04:10:48;0.75;;;0.50;;
10637;SDS011;47007;49.252;8.904;2023-03-23T04:11:30;1.60;;;0.70;;
10637;SDS011;47007;49.252;8.904;2023-03-23T04:12:27;1.88;;;1.00;;
10637;SDS011;47007;49.252;8.904;2023-03-23T04:13:10;0.88;;;0.45;;
10637;SDS011;47007;49.252;8.904;2023-03-23T04:14:09;0.95;;;0.60;;
10637;SDS011;47007;49.252;8.904;2023-03-23T04:14:56;1.40;;;0.70;;
10637;SDS011;47007;49.252;8.904;2023-03-23T04:15:44;0.77;;;0.77;;
10637;SDS011;47007;49.252;8.904;2023-03-23T04:16:26;0.68;;;0.65;;
10637;SDS011;47007;49.252;8.904;2023-03-23T04:17:10;2.08;;;0.60;;
10637;SDS011;47007;49.252;8.904;2023-03-23T04:17:51;0.40;;;0.40;;
10637;SDS011;47007;49.252;8.904;2023-03-23T04:18:32;0.77;;;0.77;;
10637;SDS011;47007;49.252;8.904;2023-03-23T04:19:14;0.50;;;0.50;;
10637;SDS011;47007;49.252;8.904;2023-03-23T04:19:54;0.77;;;0.52;;
10637;SDS011;47007;49.252;8.904;2023-03-23T04:20:42;1.00;;;0.82;;
10637;SDS011;47007;49.252;8.904;2023-03-23T04:21:25;0.95;;;0.70;;
10637;SDS011;47007;49.252;8.904;2023-03-23T04:22:09;1.13;;;0.60;;
10637;SDS011;47007;49.252;8.904;2023-03-23T04:22:51;1.13;;;0.82;;
10637;SDS011;47007;49.252;8.904;2023-03-23T04:23:36;0.70;;;0.65;;
10637;SDS011;47007;49.252;8.904;2023-03-23T04:24:17;0.70;;;0.70;;
10637;SDS011;47007;49.252;8.904;2023-03-23T04:25:01;0.88;;;0.88;;
10637;SDS011;47007;49.252;8.904;2023-03-23T04:25:51;1.65;;;0.70;;
10637;SDS011;47007;49.252;8.904;2023-03-23T04:26:33;1.35;;;0.90;;
10637;SDS011;47007;49.252;8.904;2023-03-23T04:27:24;0.80;;;0.80;;
10637;SDS011;47007;49.252;8.904;2023-03-23T04:28:05;1.38;;;0.80;;
10637;SDS011;47007;49.252;8.904;2023-03-23T04:28:54;0.82;;;0.80;;
10637;SDS011;47007;49.252;8.904;2023-03-23T04:29:47;0.82;;;0.82;;
10637;SDS011;47007;49.252;8.904;2023-03-23T04:30:48;0.88;;;0.88;;
10637;SDS011;47007;49.252;8.904;2023-03-23T04:31:29;0.80;;;0.70;;
10637;SDS011;47007;49.252;8.904;2023-03-23T04:32:19;1.00;;;0.60;;
10637;SDS011;47007;49.252;8.904;2023-03-23T04:33:05;0.95;;;0.70;;
10637;SDS011;47007;49.252;8.904;2023-03-23T04:33:46;1.38;;;0.70;;
10637;SDS011;47007;49.252;8.904;2023-03-23T04:34:28;1.35;;;0.82;;
10637;SDS011;47007;49.252;8.904;2023-03-23T04:35:14;1.30;;;0.80;;
10637;SDS011;47007;49.252;8.904;2023-03-23T04:36:00;1.02;;;0.75;;
10637;SDS011;47007;49.252;8.904;2023-03-23T04:36:51;1.33;;;0.82;;
10637;SDS011;47007;49.252;8.904;2023-03-23T04:37:36;2.92;;;1.40;;
10637;SDS011;47007;49.252;8.904;2023-03-23T04:38:19;1.10;;;0.93;;
10637;SDS011;47007;49.252;8.904;2023-03-23T04:39:05;1.35;;;0.80;;
10637;SDS011;47007;49.252;8.904;2023-03-23T04:39:50;1.00;;;0.80;;
10637;SDS011;47007;49.252;8.904;2023-03-23T04:40:40;1.58;;;1.48;;
10637;SDS011;47007;49.252;8.904;2023-03-23T04:41:37;2.10;;;1.20;;
10637;SDS011;47007;49.252;8.904;2023-03-23T04:42:31;1.77;;;1.67;;
10637;SDS011;47007;49.252;8.904;2023-03-23T04:43:30;2.72;;;2.47;;
10637;SDS011;47007;49.252;8.904;2023-03-23T04:44:19;2.63;;;1.70;;
10637;SDS011;47007;49.252;8.904;2023-03-23T04:45:16;1.90;;;1.77;;
10637;SDS011;47007;49.252;8.904;2023-03-23T04:46:03;3.00;;;2.75;;
10637;SDS011;47007;49.252;8.904;2023-03-23T04:46:50;3.65;;;2.60;;
10637;SDS011;47007;49.252;8.904;2023-03-23T04:47:34;2.40;;;2.08;;
10637;SDS011;47007;49.252;8.904;2023-03-23T04:48:28;2.55;;;2.35;;
10637;SDS011;47007;49.252;8.904;2023-03-23T04:49:18;2.33;;;2.13;;
10637;SDS011;47007;49.252;8.904;2023-03-23T04:50:03;1.70;;;1.60;;